createdAt,value
2022-12-27T00:00:03.708Z,85
2022-12-27T00:01:00.336Z,85
2022-12-27T00:02:00.557Z,85
2022-12-27T00:03:00.390Z,85
2022-12-27T00:04:00.434Z,85
2022-12-27T00:05:04.471Z,85
2022-12-27T00:06:00.413Z,85
2022-12-27T00:07:00.339Z,85
2022-12-27T00:08:00.403Z,85
2022-12-27T00:09:00.352Z,85
2022-12-27T00:10:04.840Z,85
2022-12-27T00:11:00.562Z,85
2022-12-27T00:12:00.432Z,85
2022-12-27T00:13:00.381Z,85
2022-12-27T00:14:00.436Z,85
2022-12-27T00:15:04.570Z,85
2022-12-27T00:16:00.490Z,85
2022-12-27T00:17:00.419Z,85
2022-12-27T00:18:00.512Z,85
2022-12-27T00:19:00.412Z,85
2022-12-27T00:20:10.694Z,85
2022-12-27T00:21:00.454Z,85
2022-12-27T00:22:00.562Z,85
2022-12-27T00:23:00.448Z,85
2022-12-27T00:24:00.537Z,85
2022-12-27T00:25:04.611Z,85
2022-12-27T00:26:00.516Z,85
2022-12-27T00:27:00.497Z,85
2022-12-27T00:28:00.532Z,85
2022-12-27T00:29:00.478Z,84
2022-12-27T00:30:04.887Z,84
2022-12-27T00:31:00.499Z,84
2022-12-27T00:32:00.734Z,84
2022-12-27T00:33:00.488Z,84
2022-12-27T00:34:00.607Z,84
2022-12-27T00:35:04.603Z,84
2022-12-27T00:36:00.602Z,84
2022-12-27T00:37:00.509Z,85
2022-12-27T00:38:00.590Z,85
2022-12-27T00:39:00.609Z,85
2022-12-27T00:40:04.020Z,85
2022-12-27T00:41:00.563Z,85
2022-12-27T00:42:00.636Z,85
2022-12-27T00:43:00.577Z,85
2022-12-27T00:44:00.623Z,85
2022-12-27T00:45:04.948Z,85
2022-12-27T00:46:00.696Z,85
2022-12-27T00:47:00.580Z,85
2022-12-27T00:48:00.645Z,85
2022-12-27T00:49:00.594Z,85
2022-12-27T00:50:05.398Z,85
2022-12-27T00:51:00.627Z,85
2022-12-27T00:52:00.707Z,85
2022-12-27T00:53:00.648Z,85
2022-12-27T00:54:00.700Z,85
2022-12-27T00:55:03.723Z,85
2022-12-27T00:56:00.761Z,85
2022-12-27T00:57:00.691Z,85
2022-12-27T00:58:00.744Z,85
2022-12-27T00:59:00.718Z,85
2022-12-27T01:00:10.063Z,85
2022-12-27T01:01:00.725Z,85
2022-12-27T01:02:00.992Z,85
2022-12-27T01:03:00.726Z,85
2022-12-27T01:04:00.846Z,85
2022-12-27T01:05:03.848Z,85
2022-12-27T01:06:00.822Z,85
2022-12-27T01:07:00.769Z,85
2022-12-27T01:08:00.835Z,85
2022-12-27T01:09:00.766Z,85
2022-12-27T01:10:05.115Z,85
2022-12-27T01:11:00.765Z,85
2022-12-27T01:12:00.873Z,85
2022-12-27T01:13:00.789Z,85
2022-12-27T01:14:00.897Z,86
2022-12-27T01:15:04.010Z,86
2022-12-27T01:16:00.880Z,86
2022-12-27T01:17:00.869Z,86
2022-12-27T01:18:00.887Z,86
2022-12-27T01:19:00.847Z,86
2022-12-27T01:20:05.233Z,86
2022-12-27T01:21:00.838Z,86
2022-12-27T01:22:00.917Z,86
2022-12-27T01:23:00.839Z,86
2022-12-27T01:24:00.912Z,86
2022-12-27T01:25:03.950Z,86
2022-12-27T01:26:00.934Z,86
2022-12-27T01:27:00.874Z,86
2022-12-27T01:28:00.926Z,86
2022-12-27T01:29:00.877Z,86
2022-12-27T01:30:05.296Z,86
2022-12-27T01:31:00.880Z,86
2022-12-27T01:32:01.067Z,86
2022-12-27T01:33:00.924Z,86
2022-12-27T01:34:00.957Z,86
2022-12-27T01:35:05.096Z,86
2022-12-27T01:36:00.993Z,86
2022-12-27T01:37:00.918Z,86
2022-12-27T01:38:01.001Z,86
2022-12-27T01:39:00.952Z,86
2022-12-27T01:40:05.323Z,86
2022-12-27T01:41:00.955Z,86
2022-12-27T01:42:01.054Z,86
2022-12-27T01:43:00.950Z,86
2022-12-27T01:44:01.272Z,86
2022-12-27T01:45:05.704Z,86
2022-12-27T01:46:01.131Z,86
2022-12-27T01:47:01.002Z,87
2022-12-27T01:48:01.109Z,87
2022-12-27T01:49:03.234Z,87
2022-12-27T01:50:04.473Z,87
2022-12-27T01:51:01.043Z,87
2022-12-27T01:52:01.080Z,87
2022-12-27T01:53:01.049Z,87
2022-12-27T01:54:01.141Z,87
2022-12-27T01:55:05.265Z,87
2022-12-27T01:56:01.133Z,87
2022-12-27T01:57:01.077Z,87
2022-12-27T01:58:01.141Z,87
2022-12-27T01:59:01.072Z,87
2022-12-27T02:00:05.487Z,87
2022-12-27T02:01:01.206Z,87
2022-12-27T02:02:01.524Z,87
2022-12-27T02:03:01.179Z,87
2022-12-27T02:04:01.195Z,87
2022-12-27T02:05:05.317Z,87
2022-12-27T02:06:01.249Z,87
2022-12-27T02:07:01.142Z,87
2022-12-27T02:08:01.219Z,87
2022-12-27T02:09:01.161Z,87
2022-12-27T02:10:04.442Z,87
2022-12-27T02:11:01.172Z,87
2022-12-27T02:12:01.426Z,87
2022-12-27T02:13:01.197Z,87
2022-12-27T02:14:01.265Z,87
2022-12-27T02:15:05.481Z,87
2022-12-27T02:16:01.294Z,87
2022-12-27T02:17:01.243Z,87
2022-12-27T02:18:01.341Z,87
2022-12-27T02:19:01.218Z,87
2022-12-27T02:20:03.520Z,87
2022-12-27T02:21:00.245Z,87
2022-12-27T02:22:00.313Z,87
2022-12-27T02:23:00.255Z,87
2022-12-27T02:24:00.378Z,87
2022-12-27T02:25:04.479Z,87
2022-12-27T02:26:00.348Z,86
2022-12-27T02:27:00.273Z,86
2022-12-27T02:28:32.795Z,86
2022-12-27T02:29:00.275Z,86
2022-12-27T02:30:03.625Z,86
2022-12-27T02:31:00.337Z,86
2022-12-27T02:32:00.372Z,86
2022-12-27T02:33:00.329Z,86
2022-12-27T02:34:00.406Z,86
2022-12-27T02:35:04.502Z,86
2022-12-27T02:36:00.429Z,86
2022-12-27T02:37:00.341Z,86
2022-12-27T02:38:00.418Z,86
2022-12-27T02:39:00.344Z,86
2022-12-27T02:40:05.227Z,86
2022-12-27T02:41:00.349Z,86
2022-12-27T02:42:00.456Z,86
2022-12-27T02:43:00.369Z,86
2022-12-27T02:44:00.477Z,86
2022-12-27T02:45:03.529Z,86
2022-12-27T02:46:00.577Z,86
2022-12-27T02:47:00.410Z,86
2022-12-27T02:48:00.468Z,86
2022-12-27T02:49:00.416Z,86
2022-12-27T02:50:04.757Z,86
2022-12-27T02:51:00.455Z,86
2022-12-27T02:52:00.538Z,86
2022-12-27T02:53:00.445Z,87
2022-12-27T02:54:00.516Z,87
2022-12-27T02:55:03.678Z,87
2022-12-27T02:56:00.530Z,87
2022-12-27T02:57:00.452Z,87
2022-12-27T02:58:32.468Z,87
2022-12-27T02:59:00.457Z,87
2022-12-27T03:00:05.031Z,87
2022-12-27T03:01:00.518Z,87
2022-12-27T03:02:00.684Z,87
2022-12-27T03:03:00.541Z,87
2022-12-27T03:04:00.582Z,87
2022-12-27T03:05:03.589Z,87
2022-12-27T03:06:00.601Z,87
2022-12-27T03:07:00.748Z,87
2022-12-27T03:08:00.601Z,87
2022-12-27T03:09:00.546Z,87
2022-12-27T03:10:07.776Z,87
2022-12-27T03:11:00.529Z,87
2022-12-27T03:12:00.641Z,87
2022-12-27T03:13:00.553Z,87
2022-12-27T03:14:00.614Z,87
2022-12-27T03:15:03.708Z,87
2022-12-27T03:16:00.719Z,87
2022-12-27T03:17:00.576Z,87
2022-12-27T03:18:00.650Z,87
2022-12-27T03:19:00.581Z,87
2022-12-27T03:20:04.958Z,87
2022-12-27T03:21:00.602Z,87
2022-12-27T03:22:00.743Z,87
2022-12-27T03:23:00.603Z,87
2022-12-27T03:24:00.695Z,87
2022-12-27T03:25:03.779Z,87
2022-12-27T03:26:00.692Z,87
2022-12-27T03:27:00.620Z,87
2022-12-27T03:28:00.717Z,87
2022-12-27T03:29:00.661Z,87
2022-12-27T03:30:05.227Z,87
2022-12-27T03:31:00.711Z,87
2022-12-27T03:32:00.741Z,87
2022-12-27T03:33:00.674Z,87
2022-12-27T03:34:00.751Z,87
2022-12-27T03:35:05.204Z,87
2022-12-27T03:36:00.761Z,87
2022-12-27T03:37:00.690Z,87
2022-12-27T03:38:00.781Z,87
2022-12-27T03:39:00.700Z,87
2022-12-27T03:40:04.103Z,87
2022-12-27T03:41:00.693Z,87
2022-12-27T03:42:00.790Z,87
2022-12-27T03:43:00.724Z,87
2022-12-27T03:44:00.779Z,87
2022-12-27T03:45:04.942Z,87
2022-12-27T03:46:00.882Z,87
2022-12-27T03:47:00.753Z,87
2022-12-27T03:48:00.800Z,87
2022-12-27T03:49:00.761Z,87
2022-12-27T03:50:04.136Z,87
2022-12-27T03:51:00.875Z,87
2022-12-27T03:52:00.845Z,87
2022-12-27T03:53:00.780Z,87
2022-12-27T03:54:00.891Z,88
2022-12-27T03:55:04.981Z,88
2022-12-27T03:56:00.870Z,88
2022-12-27T03:57:00.842Z,88
2022-12-27T03:58:00.877Z,88
2022-12-27T03:59:00.819Z,88
2022-12-27T04:00:04.262Z,88
2022-12-27T04:01:00.851Z,88
2022-12-27T04:02:01.137Z,88
2022-12-27T04:03:01.029Z,88
2022-12-27T04:04:00.925Z,88
2022-12-27T04:05:04.964Z,88
2022-12-27T04:06:02.416Z,88
2022-12-27T04:07:00.908Z,88
2022-12-27T04:08:00.970Z,88
2022-12-27T04:09:00.945Z,88
2022-12-27T04:10:05.371Z,88
2022-12-27T04:11:00.932Z,88
2022-12-27T04:12:01.013Z,88
2022-12-27T04:13:00.932Z,88
2022-12-27T04:14:01.004Z,88
2022-12-27T04:15:05.354Z,88
2022-12-27T04:16:01.010Z,88
2022-12-27T04:17:00.963Z,88
2022-12-27T04:18:01.037Z,88
2022-12-27T04:19:00.977Z,88
2022-12-27T04:20:05.338Z,88
2022-12-27T04:21:01.019Z,88
2022-12-27T04:22:01.055Z,88
2022-12-27T04:23:00.998Z,88
2022-12-27T04:24:01.075Z,88
2022-12-27T04:25:04.291Z,88
2022-12-27T04:26:02.510Z,88
2022-12-27T04:27:01.060Z,88
2022-12-27T04:28:01.097Z,88
2022-12-27T04:29:01.023Z,88
2022-12-27T04:30:07.422Z,88
2022-12-27T04:31:01.136Z,88
2022-12-27T04:32:01.162Z,88
2022-12-27T04:33:01.102Z,88
2022-12-27T04:34:01.157Z,88
2022-12-27T04:35:04.223Z,88
2022-12-27T04:36:06.223Z,88
2022-12-27T04:37:01.092Z,88
2022-12-27T04:38:01.200Z,88
2022-12-27T04:39:01.110Z,88
2022-12-27T04:40:07.417Z,88
2022-12-27T04:41:01.131Z,88
2022-12-27T04:42:01.243Z,88
2022-12-27T04:43:01.142Z,88
2022-12-27T04:44:01.237Z,88
2022-12-27T04:45:04.421Z,88
2022-12-27T04:46:01.213Z,88
2022-12-27T04:47:01.159Z,88
2022-12-27T04:48:01.282Z,88
2022-12-27T04:49:01.162Z,88
2022-12-27T04:50:05.757Z,88
2022-12-27T04:51:01.207Z,88
2022-12-27T04:52:00.244Z,88
2022-12-27T04:53:00.192Z,88
2022-12-27T04:54:00.275Z,88
2022-12-27T04:55:04.912Z,88
2022-12-27T04:56:00.348Z,88
2022-12-27T04:57:00.234Z,88
2022-12-27T04:58:00.337Z,88
2022-12-27T04:59:00.246Z,88
2022-12-27T05:00:04.869Z,88
2022-12-27T05:01:00.236Z,88
2022-12-27T05:02:00.493Z,88
2022-12-27T05:03:00.442Z,88
2022-12-27T05:04:00.370Z,88
2022-12-27T05:05:04.486Z,88
2022-12-27T05:06:00.357Z,88
2022-12-27T05:07:00.297Z,88
2022-12-27T05:08:00.380Z,88
2022-12-27T05:09:00.320Z,88
2022-12-27T05:10:04.674Z,88
2022-12-27T05:11:00.329Z,88
2022-12-27T05:12:00.418Z,88
2022-12-27T05:13:00.313Z,88
2022-12-27T05:14:00.467Z,88
2022-12-27T05:15:03.487Z,88
2022-12-27T05:16:00.425Z,88
2022-12-27T05:17:00.338Z,88
2022-12-27T05:18:00.427Z,88
2022-12-27T05:19:00.372Z,88
2022-12-27T05:20:04.764Z,88
2022-12-27T05:21:00.380Z,88
2022-12-27T05:22:00.460Z,88
2022-12-27T05:23:00.376Z,88
2022-12-27T05:24:05.464Z,88
2022-12-27T05:25:04.997Z,88
2022-12-27T05:26:00.470Z,87
2022-12-27T05:27:00.413Z,87
2022-12-27T05:28:00.485Z,87
2022-12-27T05:29:00.419Z,87
2022-12-27T05:30:03.956Z,87
2022-12-27T05:31:00.472Z,87
2022-12-27T05:32:00.557Z,87
2022-12-27T05:33:00.438Z,87
2022-12-27T05:34:00.530Z,87
2022-12-27T05:35:04.652Z,86
2022-12-27T05:36:00.537Z,86
2022-12-27T05:37:00.469Z,86
2022-12-27T05:38:00.568Z,86
2022-12-27T05:39:00.492Z,86
2022-12-27T05:40:05.059Z,86
2022-12-27T05:41:00.489Z,86
2022-12-27T05:42:00.549Z,86
2022-12-27T05:43:00.512Z,86
2022-12-27T05:44:06.548Z,86
2022-12-27T05:45:03.643Z,86
2022-12-27T05:46:00.617Z,86
2022-12-27T05:47:00.568Z,86
2022-12-27T05:48:00.605Z,85
2022-12-27T05:49:00.539Z,85
2022-12-27T05:50:04.965Z,85
2022-12-27T05:51:00.569Z,85
2022-12-27T05:52:00.656Z,85
2022-12-27T05:53:00.558Z,85
2022-12-27T05:54:00.658Z,85
2022-12-27T05:55:03.712Z,85
2022-12-27T05:56:00.686Z,85
2022-12-27T05:57:00.610Z,85
2022-12-27T05:58:00.666Z,85
2022-12-27T05:59:00.597Z,85
2022-12-27T06:00:05.119Z,85
2022-12-27T06:01:00.651Z,85
2022-12-27T06:02:00.984Z,85
2022-12-27T06:03:00.773Z,85
2022-12-27T06:04:00.736Z,85
2022-12-27T06:05:03.897Z,85
2022-12-27T06:06:02.390Z,85
2022-12-27T06:07:00.680Z,85
2022-12-27T06:08:00.785Z,85
2022-12-27T06:09:00.702Z,85
2022-12-27T06:10:05.057Z,85
2022-12-27T06:11:00.693Z,85
2022-12-27T06:12:00.794Z,85
2022-12-27T06:13:00.718Z,85
2022-12-27T06:14:02.422Z,85
2022-12-27T06:15:04.877Z,85
2022-12-27T06:16:00.854Z,84
2022-12-27T06:17:00.763Z,84
2022-12-27T06:18:01.086Z,84
2022-12-27T06:19:00.762Z,84
2022-12-27T06:20:05.503Z,84
2022-12-27T06:21:00.803Z,84
2022-12-27T06:22:00.876Z,84
2022-12-27T06:23:00.820Z,84
2022-12-27T06:24:00.906Z,84
2022-12-27T06:25:04.120Z,84
2022-12-27T06:26:02.446Z,84
2022-12-27T06:27:00.849Z,84
2022-12-27T06:28:00.902Z,84
2022-12-27T06:29:00.840Z,84
2022-12-27T06:30:05.253Z,84
2022-12-27T06:31:00.869Z,85
2022-12-27T06:32:00.986Z,85
2022-12-27T06:33:00.869Z,85
2022-12-27T06:34:02.462Z,85
2022-12-27T06:35:04.197Z,85
2022-12-27T06:36:00.971Z,85
2022-12-27T06:37:00.877Z,85
2022-12-27T06:38:00.999Z,85
2022-12-27T06:39:00.909Z,85
2022-12-27T06:40:05.234Z,85
2022-12-27T06:41:00.919Z,85
2022-12-27T06:42:02.439Z,85
2022-12-27T06:43:00.928Z,85
2022-12-27T06:44:01.034Z,85
2022-12-27T06:45:05.347Z,85
2022-12-27T06:46:02.561Z,85
2022-12-27T06:47:00.965Z,85
2022-12-27T06:48:01.019Z,85
2022-12-27T06:49:00.980Z,85
2022-12-27T06:50:05.427Z,85
2022-12-27T06:51:00.999Z,86
2022-12-27T06:52:01.064Z,86
2022-12-27T06:53:00.984Z,86
2022-12-27T06:54:02.412Z,86
2022-12-27T06:55:05.156Z,86
2022-12-27T06:56:01.116Z,86
2022-12-27T06:57:01.033Z,86
2022-12-27T06:58:01.118Z,86
2022-12-27T06:59:01.023Z,86
2022-12-27T07:00:05.766Z,86
2022-12-27T07:01:01.078Z,86
2022-12-27T07:02:01.341Z,86
2022-12-27T07:03:01.151Z,86
2022-12-27T07:04:01.160Z,86
2022-12-27T07:05:04.314Z,86
2022-12-27T07:06:01.366Z,86
2022-12-27T07:07:01.091Z,86
2022-12-27T07:08:02.457Z,86
2022-12-27T07:09:01.095Z,86
2022-12-27T07:10:05.484Z,86
2022-12-27T07:11:01.101Z,86
2022-12-27T07:12:02.435Z,86
2022-12-27T07:13:01.121Z,86
2022-12-27T07:14:01.218Z,86
2022-12-27T07:15:06.034Z,86
2022-12-27T07:16:02.429Z,86
2022-12-27T07:17:01.148Z,86
2022-12-27T07:18:01.230Z,86
2022-12-27T07:19:01.187Z,86
2022-12-27T07:20:04.976Z,86
2022-12-27T07:21:01.206Z,86
2022-12-27T07:22:01.260Z,86
2022-12-27T07:23:01.179Z,86
2022-12-27T07:24:01.267Z,85
2022-12-27T07:25:05.513Z,85
2022-12-27T07:26:00.279Z,85
2022-12-27T07:27:00.239Z,85
2022-12-27T07:28:00.307Z,85
2022-12-27T07:29:00.215Z,85
2022-12-27T07:30:03.701Z,85
2022-12-27T07:31:00.251Z,85
2022-12-27T07:32:00.370Z,85
2022-12-27T07:33:00.257Z,85
2022-12-27T07:34:00.368Z,84
2022-12-27T07:35:04.425Z,84
2022-12-27T07:36:00.346Z,84
2022-12-27T07:37:00.302Z,84
2022-12-27T07:38:00.373Z,84
2022-12-27T07:39:00.288Z,84
2022-12-27T07:40:03.676Z,84
2022-12-27T07:41:00.305Z,84
2022-12-27T07:42:04.797Z,84
2022-12-27T07:43:00.327Z,84
2022-12-27T07:44:00.387Z,84
2022-12-27T07:45:04.574Z,84
2022-12-27T07:46:00.386Z,84
2022-12-27T07:47:00.325Z,85
2022-12-27T07:48:00.435Z,85
2022-12-27T07:49:00.363Z,85
2022-12-27T07:50:03.844Z,85
2022-12-27T07:51:00.361Z,85
2022-12-27T07:52:00.411Z,85
2022-12-27T07:53:00.360Z,85
2022-12-27T07:54:00.483Z,85
2022-12-27T07:55:04.511Z,85
2022-12-27T07:56:00.445Z,85
2022-12-27T07:57:00.393Z,85
2022-12-27T07:58:00.453Z,85
2022-12-27T07:59:00.392Z,85
2022-12-27T08:00:04.838Z,85
2022-12-27T08:01:00.442Z,85
2022-12-27T08:02:00.614Z,85
2022-12-27T08:03:00.421Z,85
2022-12-27T08:04:00.475Z,85
2022-12-27T08:05:04.569Z,85
2022-12-27T08:06:00.482Z,85
2022-12-27T08:07:00.609Z,84
2022-12-27T08:08:00.488Z,84
2022-12-27T08:09:00.460Z,84
2022-12-27T08:10:05.931Z,84
2022-12-27T08:11:05.312Z,84
2022-12-27T08:12:00.553Z,84
2022-12-27T08:13:00.500Z,84
2022-12-27T08:14:00.574Z,84
2022-12-27T08:15:04.710Z,84
2022-12-27T08:16:00.559Z,84
2022-12-27T08:17:00.543Z,84
2022-12-27T08:18:00.583Z,84
2022-12-27T08:19:04.871Z,84
2022-12-27T08:20:04.890Z,84
2022-12-27T08:21:00.528Z,84
2022-12-27T08:22:00.588Z,84
2022-12-27T08:23:00.556Z,83
2022-12-27T08:24:00.616Z,83
2022-12-27T08:25:04.929Z,83
2022-12-27T08:26:00.640Z,83
2022-12-27T08:27:00.581Z,83
2022-12-27T08:28:00.647Z,83
2022-12-27T08:29:00.587Z,83
2022-12-27T08:30:05.182Z,83
2022-12-27T08:31:00.632Z,83
2022-12-27T08:32:00.634Z,83
2022-12-27T08:33:00.607Z,83
2022-12-27T08:34:00.678Z,83
2022-12-27T08:35:24.985Z,83
2022-12-27T08:36:04.798Z,83
2022-12-27T08:37:00.644Z,83
2022-12-27T08:38:00.692Z,83
2022-12-27T08:39:00.660Z,83
2022-12-27T08:40:05.006Z,83
2022-12-27T08:41:00.647Z,83
2022-12-27T08:42:00.730Z,83
2022-12-27T08:43:00.700Z,83
2022-12-27T08:44:00.714Z,83
2022-12-27T08:45:03.845Z,83
2022-12-27T08:46:00.836Z,83
2022-12-27T08:47:00.689Z,83
2022-12-27T08:48:00.834Z,83
2022-12-27T08:49:00.725Z,83
2022-12-27T08:50:05.033Z,83
2022-12-27T08:51:00.714Z,83
2022-12-27T08:52:00.808Z,83
2022-12-27T08:53:00.783Z,83
2022-12-27T08:54:00.791Z,83
2022-12-27T08:55:04.959Z,82
2022-12-27T08:56:00.791Z,82
2022-12-27T08:57:00.786Z,81
2022-12-27T08:58:00.824Z,81
2022-12-27T08:59:00.761Z,81
2022-12-27T09:00:08.311Z,81
2022-12-27T09:01:00.799Z,81
2022-12-27T09:02:01.000Z,80
2022-12-27T09:03:00.842Z,80
2022-12-27T09:04:00.905Z,80
2022-12-27T09:05:05.351Z,79
2022-12-27T09:06:01.117Z,79
2022-12-27T09:07:00.822Z,79
2022-12-27T09:08:01.376Z,79
2022-12-27T09:09:00.823Z,79
2022-12-27T09:10:05.853Z,79
2022-12-27T09:11:00.811Z,79
2022-12-27T09:12:04.023Z,79
2022-12-27T09:13:00.839Z,79
2022-12-27T09:14:02.495Z,79
2022-12-27T09:15:05.097Z,79
2022-12-27T09:16:00.935Z,79
2022-12-27T09:17:00.842Z,79
2022-12-27T09:18:00.974Z,80
2022-12-27T09:19:00.876Z,80
2022-12-27T09:20:04.223Z,80
2022-12-27T09:21:00.887Z,80
2022-12-27T09:22:00.953Z,80
2022-12-27T09:23:00.905Z,81
2022-12-27T09:24:01.057Z,81
2022-12-27T09:25:05.062Z,81
2022-12-27T09:26:02.443Z,81
2022-12-27T09:27:00.935Z,81
2022-12-27T09:28:00.991Z,81
2022-12-27T09:29:00.922Z,81
2022-12-27T09:30:04.389Z,80
2022-12-27T09:31:00.982Z,80
2022-12-27T09:32:01.019Z,80
2022-12-27T09:33:00.977Z,80
2022-12-27T09:34:02.451Z,80
2022-12-27T09:35:05.237Z,80
2022-12-27T09:36:01.037Z,80
2022-12-27T09:37:00.997Z,80
2022-12-27T09:38:01.037Z,79
2022-12-27T09:39:01.007Z,79
2022-12-27T09:40:04.464Z,79
2022-12-27T09:41:01.036Z,79
2022-12-27T09:43:16.356Z,77
2022-12-27T09:44:01.095Z,77
2022-12-27T09:45:05.218Z,77
2022-12-27T09:46:01.191Z,77
2022-12-27T09:47:01.107Z,77
2022-12-27T09:48:02.469Z,76
2022-12-27T09:49:01.077Z,76
2022-12-27T09:50:05.478Z,76
2022-12-27T09:51:01.081Z,77
2022-12-27T09:52:02.491Z,77
2022-12-27T09:53:01.081Z,77
2022-12-27T09:54:01.174Z,77
2022-12-27T09:55:05.791Z,77
2022-12-27T09:56:02.453Z,77
2022-12-27T09:57:19.420Z,77
2022-12-27T09:58:01.203Z,76
2022-12-27T09:59:01.116Z,76
2022-12-27T10:00:06.125Z,76
2022-12-27T10:01:01.199Z,76
2022-12-27T10:02:01.364Z,76
2022-12-27T10:03:01.203Z,76
2022-12-27T10:04:02.509Z,75
2022-12-27T10:05:22.253Z,75
2022-12-27T10:06:00.376Z,75
2022-12-27T10:07:00.218Z,75
2022-12-27T10:08:00.285Z,75
2022-12-27T10:09:00.233Z,75
2022-12-27T10:10:04.627Z,75
2022-12-27T10:11:00.223Z,75
2022-12-27T10:12:00.315Z,75
2022-12-27T10:13:00.234Z,75
2022-12-27T10:14:00.315Z,75
2022-12-27T10:15:03.337Z,75
2022-12-27T10:16:00.619Z,76
2022-12-27T10:17:00.293Z,76
2022-12-27T10:18:00.357Z,76
2022-12-27T10:19:00.285Z,76
2022-12-27T10:20:04.692Z,76
2022-12-27T10:21:00.317Z,76
2022-12-27T10:22:00.372Z,76
2022-12-27T10:23:05.847Z,75
2022-12-27T10:24:00.399Z,75
2022-12-27T10:25:03.454Z,75
2022-12-27T10:26:00.393Z,75
2022-12-27T10:27:00.366Z,75
2022-12-27T10:28:00.594Z,75
2022-12-27T10:29:00.339Z,75
2022-12-27T10:30:04.752Z,75
2022-12-27T10:31:00.354Z,75
2022-12-27T10:32:00.430Z,75
2022-12-27T10:33:00.391Z,75
2022-12-27T10:34:00.463Z,76
2022-12-27T10:35:03.512Z,76
2022-12-27T10:36:00.445Z,76
2022-12-27T10:37:00.408Z,76
2022-12-27T10:38:00.455Z,76
2022-12-27T10:39:00.424Z,76
2022-12-27T10:40:04.811Z,76
2022-12-27T10:41:00.429Z,75
2022-12-27T10:42:00.498Z,75
2022-12-27T10:43:00.434Z,75
2022-12-27T10:44:00.520Z,75
2022-12-27T10:45:03.642Z,75
2022-12-27T10:46:00.541Z,74
2022-12-27T10:47:00.483Z,74
2022-12-27T10:48:00.524Z,74
2022-12-27T10:49:21.275Z,73
2022-12-27T10:50:04.830Z,73
2022-12-27T10:51:00.501Z,73
2022-12-27T10:52:00.589Z,72
2022-12-27T10:53:00.511Z,72
2022-12-27T10:54:00.586Z,72
2022-12-27T10:55:08.231Z,72
2022-12-27T10:56:00.586Z,72
2022-12-27T10:57:00.536Z,72
2022-12-27T10:58:00.626Z,72
2022-12-27T10:59:00.568Z,72
2022-12-27T11:00:05.294Z,71
2022-12-27T11:01:00.683Z,71
2022-12-27T11:02:00.917Z,71
2022-12-27T11:03:00.634Z,71
2022-12-27T11:04:00.703Z,71
2022-12-27T11:05:04.754Z,71
2022-12-27T11:06:00.665Z,71
2022-12-27T11:07:00.595Z,71
2022-12-27T11:08:00.669Z,71
2022-12-27T11:09:00.645Z,71
2022-12-27T11:10:04.142Z,71
2022-12-27T11:11:00.630Z,71
2022-12-27T11:12:00.711Z,72
2022-12-27T11:13:00.637Z,72
2022-12-27T11:14:00.899Z,72
2022-12-27T11:15:05.165Z,72
2022-12-27T11:16:02.506Z,72
2022-12-27T11:17:00.657Z,72
2022-12-27T11:18:00.909Z,72
2022-12-27T11:19:00.682Z,72
2022-12-27T11:20:04.117Z,74
2022-12-27T11:21:00.933Z,74
2022-12-27T11:22:01.275Z,74
2022-12-27T11:23:00.710Z,74
2022-12-27T11:24:01.166Z,74
2022-12-27T11:25:04.850Z,75
2022-12-27T11:26:02.483Z,75
2022-12-27T11:27:00.748Z,75
2022-12-27T11:28:01.489Z,75
2022-12-27T11:29:00.726Z,75
2022-12-27T11:30:05.123Z,75
2022-12-27T11:31:00.796Z,75
2022-12-27T11:32:01.718Z,75
2022-12-27T11:33:00.755Z,75
2022-12-27T11:34:02.515Z,75
2022-12-27T11:35:05.665Z,76
2022-12-27T11:36:01.689Z,76
2022-12-27T11:37:00.800Z,76
2022-12-27T11:38:01.941Z,76
2022-12-27T11:39:00.811Z,76
2022-12-27T11:40:04.247Z,76
2022-12-27T11:41:00.815Z,76
2022-12-27T11:42:01.360Z,76
2022-12-27T11:43:00.810Z,76
2022-12-27T11:44:00.939Z,76
2022-12-27T11:45:05.156Z,76
2022-12-27T11:46:00.920Z,76
2022-12-27T11:47:00.856Z,76
2022-12-27T11:48:02.554Z,76
2022-12-27T11:49:00.852Z,76
2022-12-27T11:50:05.656Z,76
2022-12-27T11:51:00.889Z,76
2022-12-27T11:52:00.975Z,76
2022-12-27T11:53:00.926Z,76
2022-12-27T11:54:00.964Z,76
2022-12-27T11:55:04.091Z,76
2022-12-27T11:56:01.002Z,76
2022-12-27T11:57:00.944Z,76
2022-12-27T11:58:00.997Z,76
2022-12-27T11:59:00.936Z,76
2022-12-27T12:00:05.301Z,76
2022-12-27T12:01:05.367Z,76
2022-12-27T12:02:01.702Z,76
2022-12-27T12:03:01.095Z,76
2022-12-27T12:04:01.060Z,75
2022-12-27T12:05:04.259Z,75
2022-12-27T12:06:01.069Z,75
2022-12-27T12:07:00.993Z,75
2022-12-27T12:08:01.111Z,75
2022-12-27T12:09:01.031Z,75
2022-12-27T12:10:05.490Z,75
2022-12-27T12:11:01.038Z,75
2022-12-27T12:12:01.087Z,74
2022-12-27T12:13:01.028Z,74
2022-12-27T12:14:01.135Z,74
2022-12-27T12:15:04.240Z,74
2022-12-27T12:16:01.145Z,74
2022-12-27T12:17:01.070Z,74
2022-12-27T12:18:01.164Z,74
2022-12-27T12:19:01.058Z,74
2022-12-27T12:20:05.503Z,75
2022-12-27T12:21:01.097Z,75
2022-12-27T12:22:01.158Z,75
2022-12-27T12:23:01.117Z,75
2022-12-27T12:24:01.385Z,75
2022-12-27T12:25:04.241Z,75
2022-12-27T12:26:02.501Z,75
2022-12-27T12:27:01.134Z,75
2022-12-27T12:28:01.186Z,75
2022-12-27T12:29:01.231Z,75
2022-12-27T12:30:05.494Z,75
2022-12-27T12:31:01.151Z,75
2022-12-27T12:32:01.310Z,75
2022-12-27T12:33:01.172Z,75
2022-12-27T12:34:01.251Z,75
2022-12-27T12:35:04.493Z,75
2022-12-27T12:36:01.253Z,75
2022-12-27T12:37:00.187Z,75
2022-12-27T12:38:00.280Z,75
2022-12-27T12:39:00.202Z,75
2022-12-27T12:40:04.733Z,75
2022-12-27T12:41:00.208Z,75
2022-12-27T12:42:00.277Z,75
2022-12-27T12:43:00.226Z,75
2022-12-27T12:44:00.334Z,75
2022-12-27T12:45:04.822Z,74
2022-12-27T12:46:00.381Z,74
2022-12-27T12:47:00.250Z,74
2022-12-27T12:48:00.343Z,74
2022-12-27T12:49:00.256Z,74
2022-12-27T12:50:06.569Z,74
2022-12-27T12:51:00.297Z,74
2022-12-27T12:52:00.381Z,74
2022-12-27T12:53:00.321Z,74
2022-12-27T12:54:00.381Z,74
2022-12-27T12:55:04.561Z,74
2022-12-27T12:56:00.415Z,74
2022-12-27T12:57:00.339Z,74
2022-12-27T12:58:00.406Z,74
2022-12-27T12:59:00.354Z,74
2022-12-27T13:00:03.755Z,75
2022-12-27T13:01:00.488Z,75
2022-12-27T13:02:00.652Z,75
2022-12-27T13:03:00.565Z,75
2022-12-27T13:04:00.471Z,75
2022-12-27T13:05:04.565Z,74
2022-12-27T13:06:00.504Z,74
2022-12-27T13:07:00.455Z,74
2022-12-27T13:08:00.515Z,74
2022-12-27T13:09:00.439Z,74
2022-12-27T13:10:03.906Z,74
2022-12-27T13:11:00.459Z,74
2022-12-27T13:12:00.582Z,74
2022-12-27T13:13:00.520Z,74
2022-12-27T13:14:00.556Z,74
2022-12-27T13:15:04.621Z,74
2022-12-27T13:16:00.579Z,73
2022-12-27T13:17:00.575Z,73
2022-12-27T13:18:00.598Z,74
2022-12-27T13:19:00.530Z,74
2022-12-27T13:20:03.986Z,74
2022-12-27T13:21:00.551Z,74
2022-12-27T13:22:00.626Z,74
2022-12-27T13:23:00.556Z,73
2022-12-27T13:24:00.645Z,73
2022-12-27T13:25:04.753Z,73
2022-12-27T13:26:00.625Z,73
2022-12-27T13:27:00.616Z,73
2022-12-27T13:28:00.663Z,73
2022-12-27T13:29:00.588Z,73
2022-12-27T13:30:07.135Z,73
2022-12-27T13:31:00.684Z,73
2022-12-27T13:32:00.736Z,73
2022-12-27T13:33:00.621Z,73
2022-12-27T13:34:00.677Z,73
2022-12-27T13:35:04.926Z,73
2022-12-27T13:36:00.711Z,73
2022-12-27T13:37:00.678Z,73
2022-12-27T13:38:00.716Z,73
2022-12-27T13:39:00.667Z,73
2022-12-27T13:40:05.618Z,73
2022-12-27T13:41:00.681Z,73
2022-12-27T13:42:00.734Z,73
2022-12-27T13:43:00.709Z,73
2022-12-27T13:44:00.770Z,73
2022-12-27T13:45:03.808Z,73
2022-12-27T13:46:00.814Z,74
2022-12-27T13:47:00.700Z,74
2022-12-27T13:48:00.771Z,73
2022-12-27T13:49:00.719Z,73
2022-12-27T13:50:05.053Z,73
2022-12-27T13:51:00.741Z,73
2022-12-27T13:52:00.791Z,73
2022-12-27T13:53:00.741Z,74
2022-12-27T13:54:00.821Z,74
2022-12-27T13:55:03.934Z,74
2022-12-27T13:56:14.692Z,74
2022-12-27T13:57:00.756Z,74
2022-12-27T13:58:00.817Z,73
2022-12-27T13:59:00.776Z,73
2022-12-27T14:00:05.210Z,73
2022-12-27T14:01:00.885Z,73
2022-12-27T14:02:00.999Z,73
2022-12-27T14:03:00.927Z,73
2022-12-27T14:04:00.882Z,73
2022-12-27T14:05:04.085Z,73
2022-12-27T14:06:00.955Z,73
2022-12-27T14:07:00.836Z,73
2022-12-27T14:08:00.910Z,73
2022-12-27T14:09:00.862Z,73
2022-12-27T14:10:05.209Z,73
2022-12-27T14:11:01.390Z,73
2022-12-27T14:12:00.969Z,73
2022-12-27T14:13:00.876Z,72
2022-12-27T14:14:00.961Z,72
2022-12-27T14:15:04.077Z,72
2022-12-27T14:16:01.104Z,73